• Join FlightAware (Why Join?)
  • Login
  • US Flag 
01:00PM EDT


 

Airport Tracker/Info


-or-


 

Live Flight TrackerFlight Track Log ✈ N8TM ✈ 22-Jul-2013 ✈ KHOU - KGLS

Flight Track Log - Related Links

Times and Time Zones

All times are in EDT time to prevent confusion due to time zone crossing. See the N8TM flight status page for this flight to view local times or setup timezone preferences in your user account.

Time Position Orientation Groundspeed Altitude Reporting Facility
EDT Latitude Longitude Course Direction KTS MPH feet Rate Location/Type
03:29PM 29.6411 -95.2836 136° Southeast 114 131 400  Level Houston Center
03:30PM 29.6169 -95.2697 153° Southeast 130 150 1,200 660 Climbing Houston Center
03:31PM 29.5942 -95.2436 135° Southeast 134 154 1,600 360 Climbing Houston Center
03:32PM 29.5650 -95.2094 134° Southeast 144 166 1,900 180 Climbing Houston Center
03:33PM 29.5339 -95.1728 134° Southeast 154 177 2,000  Climbing Houston Center
03:34PM 29.5033 -95.1369 134° Southeast 157 181 2,000  Level Houston Center
03:35PM 29.4820 -95.0984 136° Southeast  Level Estimated
03:35PM 29.4836 -95.0861 114° Southeast 161 185 2,000  Level Houston Center
03:36PM 29.4872 -95.0336 85° East 164 189 2,000  Level Houston Center
03:37PM 29.4858 -94.9803 92° East 166 191 2,000  Level Houston Center
03:38PM 29.4839 -94.9242 92° East 170 196 2,000  Level Houston Center
03:39PM 29.4814 -94.8678 93° East 175 201 2,000 -120 Level Houston Center
03:40PM 29.4347 -94.8525 164° South 139 160 1,800 -120 Descending Houston Center
03:41PM 29.3972 -94.8572 186° South 133 153 1,800 -60 Level Houston Center
03:42PM 29.3594 -94.8572 180° South 121 139 1,700 -360 Descending Houston Center
03:43PM 29.3303 -94.8583 182° South 112 129 1,100 -600 Descending Houston Center
03:44PM 29.2989 -94.8600 183° South 103 119 500 -120 Descending Houston Center
03:45PM 29.2694 -94.8611 182° South 104 120 900 600 Climbing Houston Center
03:46PM 29.2472 -94.8472 151° Southeast 108 124 1,800 540 Climbing Houston Center
03:47PM 29.2731 -94.8106 51° Northeast 161 185 2,100 120 Climbing Houston Center
03:48PM 29.3167 -94.8050 North 186 214 2,100 -60 Level Houston Center
03:49PM 29.3278 -94.8553 284° West 163 188 2,000 -60 Descending Houston Center
03:50PM 29.3342 -94.9011 279° West 145 167 2,000  Level Houston Center
03:51PM 29.3469 -94.9450 288° West 151 174 2,100  Climbing Houston Center
03:52PM 29.3833 -94.9742 325° Northwest 156 180 2,000 -60 Descending Houston Center
03:53PM 29.4294 -94.9733 North 161 185 2,000  Level Houston Center
03:54PM 29.4406 -95.0031 293° West 118 136 2,100  Climbing Houston Center
03:55PM 29.4086 -94.9975 171° South 139 160 2,000 -60 Descending Houston Center
03:56PM 29.3808 -94.9697 139° Southeast 131 151 2,000  Level Houston Center
03:57PM 29.3536 -94.9492 147° Southeast 111 128 2,000 -300 Level Houston Center
03:58PM 29.3281 -94.9233 139° Southeast 114 131 1,500 -600 Descending Houston Center
03:59PM 29.3047 -94.9000 139° Southeast 113 130 800 -600 Descending Houston Center
04:00PM 29.2842 -94.8811 141° Southeast 113 130 300 -60 Descending Houston Center
04:01PM 29.2586 -94.8556 139° Southeast 108 124 700 540 Climbing Houston Center
04:02PM 29.2283 -94.8689 201° Southwest 150 173 1,500 780 Climbing Houston Center